createdAt,value
2023-05-22T00:02:14.430Z,19.90
2023-05-22T00:04:42.508Z,19.90
2023-05-22T00:07:09.986Z,19.90
2023-05-22T00:09:37.531Z,19.80
2023-05-22T00:12:05.828Z,19.80
2023-05-22T00:14:33.389Z,19.80
2023-05-22T04:24:49.677Z,16.00
2023-05-22T04:34:55.158Z,15.90
2023-05-22T04:44:38.376Z,16.00
2023-05-22T04:47:08.223Z,16.00
2023-05-22T04:54:19.101Z,16.10
2023-05-22T04:56:46.688Z,16.10
2023-05-22T04:59:16.937Z,16.20
2023-05-22T05:05:27.987Z,16.40
2023-05-22T05:07:55.565Z,16.30
2023-05-22T05:10:23.254Z,16.40
2023-05-22T05:12:50.939Z,16.40
2023-05-22T05:15:19.503Z,16.50
2023-05-22T05:17:47.077Z,16.50
2023-05-22T05:20:14.784Z,16.60
2023-05-22T05:22:44.148Z,16.60
2023-05-22T05:25:12.162Z,16.70
2023-05-22T05:27:40.157Z,16.80
2023-05-22T05:30:08.975Z,16.80
2023-05-22T05:32:36.637Z,16.80
2023-05-22T05:35:04.635Z,16.90
2023-05-22T05:37:32.675Z,17.00
2023-05-22T05:40:00.205Z,17.00
2023-05-22T05:42:27.739Z,17.10
2023-05-22T05:44:55.313Z,17.10
2023-05-22T05:47:24.277Z,17.10
2023-05-22T05:49:51.878Z,17.10
2023-05-22T05:52:19.372Z,17.20
2023-05-22T05:54:48.204Z,17.20
2023-05-22T05:57:16.655Z,17.30
2023-05-22T05:59:44.159Z,17.30
2023-05-22T06:02:11.992Z,17.30
2023-05-22T06:04:39.668Z,17.40
2023-05-22T06:07:08.052Z,17.40
2023-05-22T06:09:36.401Z,17.50
2023-05-22T06:12:04.439Z,17.60
2023-05-22T06:14:31.970Z,17.60
2023-05-22T06:16:59.696Z,17.70
2023-05-22T06:19:27.238Z,17.80
2023-05-22T06:21:54.803Z,17.80
2023-05-22T06:24:22.351Z,17.90
2023-05-22T06:26:49.804Z,17.90
2023-05-22T06:29:17.319Z,18.00
2023-05-22T06:31:44.890Z,18.10
2023-05-22T06:34:12.509Z,18.10
2023-05-22T06:36:40.830Z,18.20
2023-05-22T06:39:08.882Z,18.20
2023-05-22T06:41:36.430Z,18.30
2023-05-22T06:44:05.581Z,18.30
2023-05-22T06:46:33.160Z,18.30
2023-05-22T06:49:00.797Z,18.40
2023-05-22T06:51:29.530Z,18.50
2023-05-22T06:53:57.142Z,18.50
2023-05-22T06:56:25.530Z,18.60
2023-05-22T06:58:53.113Z,18.60
2023-05-22T07:01:20.740Z,18.70
2023-05-22T07:03:48.208Z,18.70
2023-05-22T07:06:15.927Z,18.80
2023-05-22T07:08:43.624Z,18.80
2023-05-22T07:11:11.176Z,18.90
2023-05-22T07:13:38.664Z,18.90
2023-05-22T07:16:06.604Z,19.00
2023-05-22T07:18:34.197Z,19.10
2023-05-22T07:21:01.731Z,19.10
2023-05-22T07:23:29.427Z,19.20
2023-05-22T07:25:56.878Z,19.30
2023-05-22T07:28:24.405Z,19.30
2023-05-22T07:30:52.069Z,19.40
2023-05-22T07:33:19.518Z,19.50
2023-05-22T07:35:47.174Z,19.50
2023-05-22T07:38:14.661Z,19.60
2023-05-22T07:40:42.271Z,19.60
2023-05-22T07:43:09.801Z,19.70
2023-05-22T07:45:38.560Z,19.80
2023-05-22T07:48:06.768Z,19.90
2023-05-22T07:50:34.364Z,19.90
2023-05-22T07:53:02.121Z,20.00
2023-05-22T07:55:29.667Z,20.10
2023-05-22T07:57:57.499Z,20.20
2023-05-22T08:00:25.714Z,20.30
2023-05-22T08:02:53.461Z,20.30
2023-05-22T08:05:21.287Z,20.40
2023-05-22T08:07:48.790Z,20.40
2023-05-22T08:10:20.549Z,20.50
2023-05-22T08:12:47.983Z,20.50
2023-05-22T08:15:15.607Z,20.60
2023-05-22T08:17:43.079Z,20.70
2023-05-22T08:20:12.000Z,20.70
2023-05-22T08:22:40.562Z,20.80
2023-05-22T08:25:09.298Z,20.80
2023-05-22T08:27:36.748Z,20.90
2023-05-22T08:30:05.053Z,21.00
2023-05-22T08:32:32.944Z,21.00
2023-05-22T08:35:01.612Z,21.10
2023-05-22T08:37:29.262Z,21.20
2023-05-22T08:39:56.790Z,21.20
2023-05-22T08:42:24.810Z,21.30
2023-05-22T08:44:52.659Z,21.40
2023-05-22T08:47:21.400Z,21.40
2023-05-22T08:49:53.237Z,21.50
2023-05-22T08:52:29.523Z,21.60
2023-05-22T08:54:57.950Z,21.60
2023-05-22T08:57:26.176Z,21.70
2023-05-22T08:59:54.397Z,21.80
2023-05-22T09:02:22.512Z,21.80
2023-05-22T09:04:50.054Z,21.80
2023-05-22T09:07:17.562Z,21.90
2023-05-22T09:09:44.994Z,21.90
2023-05-22T09:12:13.769Z,22.00
2023-05-22T09:14:45.128Z,22.10
2023-05-22T09:17:16.691Z,22.20
2023-05-22T09:19:47.913Z,22.20
2023-05-22T09:22:16.805Z,22.30
2023-05-22T09:24:47.341Z,22.30
2023-05-22T09:27:14.763Z,22.40
2023-05-22T09:29:53.315Z,22.50
2023-05-22T09:32:21.107Z,22.50
2023-05-22T09:34:49.018Z,22.60
2023-05-22T09:37:18.483Z,22.60
2023-05-22T09:39:48.295Z,22.60
2023-05-22T09:42:17.993Z,22.70
2023-05-22T09:44:52.131Z,22.70
2023-05-22T09:47:19.602Z,22.80
2023-05-22T09:49:47.238Z,22.80
2023-05-22T09:52:15.753Z,22.80
2023-05-22T09:54:55.891Z,22.90
2023-05-22T09:57:26.861Z,22.90
2023-05-22T09:59:58.976Z,23.00
2023-05-22T10:02:28.363Z,23.10
2023-05-22T10:04:56.259Z,23.10
2023-05-22T10:07:35.738Z,23.10
2023-05-22T10:10:09.453Z,23.20
2023-05-22T10:12:48.449Z,23.20
2023-05-22T10:15:17.398Z,23.30
2023-05-22T10:17:45.317Z,23.30
2023-05-22T10:20:14.671Z,23.40
2023-05-22T10:22:43.161Z,23.40
2023-05-22T10:25:11.744Z,23.50
2023-05-22T10:27:40.885Z,23.40
2023-05-22T10:31:13.004Z,23.50
2023-05-22T10:33:53.886Z,23.60
2023-05-22T10:37:18.759Z,23.80
2023-05-22T10:40:12.603Z,23.80
2023-05-22T10:42:40.469Z,24.00
2023-05-22T10:45:09.301Z,24.10
2023-05-22T10:47:37.225Z,24.20
2023-05-22T10:50:12.688Z,24.30
2023-05-22T10:52:40.961Z,24.40
2023-05-22T10:55:11.042Z,24.40
2023-05-22T10:57:40.271Z,24.40
2023-05-22T11:00:19.577Z,24.50
2023-05-22T11:02:47.495Z,24.60
2023-05-22T11:05:25.627Z,24.80
2023-05-22T11:07:53.165Z,24.90
2023-05-22T11:10:48.031Z,25.00
2023-05-22T11:13:17.843Z,25.10
2023-05-22T11:15:46.926Z,25.20
2023-05-22T11:18:15.126Z,25.20
2023-05-22T11:20:44.419Z,25.40
2023-05-22T11:23:12.243Z,25.50
2023-05-22T11:25:42.133Z,25.60
2023-05-22T11:28:11.631Z,25.60
2023-05-22T11:30:40.014Z,25.70
2023-05-22T11:33:07.795Z,25.80
2023-05-22T11:35:35.715Z,26.00
2023-05-22T11:38:08.432Z,26.10
2023-05-22T11:40:35.848Z,26.10
2023-05-22T11:43:04.776Z,26.20
2023-05-22T11:45:37.146Z,26.30
2023-05-22T11:48:04.706Z,26.50
2023-05-22T11:50:41.597Z,26.60
2023-05-22T11:53:09.764Z,26.70
2023-05-22T11:55:37.270Z,26.70
2023-05-22T11:58:04.760Z,26.80
2023-05-22T12:00:32.632Z,26.80
2023-05-22T12:03:00.438Z,26.90
2023-05-22T12:05:28.166Z,27.10
2023-05-22T12:07:55.879Z,27.20
2023-05-22T12:10:25.288Z,27.40
2023-05-22T12:12:52.817Z,27.60
2023-05-22T12:15:21.236Z,27.70
2023-05-22T12:17:48.883Z,27.90
2023-05-22T12:20:16.470Z,27.70
2023-05-22T12:22:44.642Z,27.80
2023-05-22T12:25:17.647Z,27.90
2023-05-22T12:27:46.195Z,28.00
2023-05-22T12:30:16.824Z,28.30
2023-05-22T12:32:51.517Z,28.50
2023-05-22T12:35:19.690Z,28.20
2023-05-22T12:37:52.441Z,28.30
2023-05-22T12:40:20.042Z,28.50
2023-05-22T12:42:50.039Z,28.70
2023-05-22T12:45:18.264Z,28.80
2023-05-22T12:47:46.133Z,28.80
2023-05-22T12:50:13.706Z,28.70
2023-05-22T12:52:41.141Z,28.80
2023-05-22T12:55:11.316Z,28.90
2023-05-22T12:57:38.804Z,29.10
2023-05-22T13:00:07.802Z,29.20
2023-05-22T13:02:35.618Z,29.40
2023-05-22T13:05:03.409Z,29.50
2023-05-22T13:07:31.852Z,29.50
2023-05-22T13:09:59.389Z,29.60
2023-05-22T13:12:27.468Z,29.70
2023-05-22T13:14:54.922Z,29.90
2023-05-22T13:17:22.440Z,29.80
2023-05-22T13:19:50.042Z,30.00
2023-05-22T13:22:17.767Z,30.10
2023-05-22T13:24:45.393Z,30.30
2023-05-22T13:27:13.176Z,30.40
2023-05-22T13:29:40.664Z,30.50
2023-05-22T13:32:08.180Z,30.50
2023-05-22T13:34:35.836Z,30.50
2023-05-22T13:37:03.712Z,30.30
2023-05-22T13:39:31.200Z,30.30
2023-05-22T13:41:58.830Z,30.40
2023-05-22T13:44:26.581Z,30.20
2023-05-22T13:46:55.040Z,29.70
2023-05-22T13:49:22.738Z,29.70
2023-05-22T13:51:50.293Z,30.00
2023-05-22T13:54:17.727Z,30.10
2023-05-22T13:56:45.263Z,30.40
2023-05-22T13:59:12.720Z,30.50
2023-05-22T14:01:40.256Z,30.80
2023-05-22T14:04:07.811Z,30.80
2023-05-22T14:06:35.320Z,30.80
2023-05-22T14:09:03.636Z,30.90
2023-05-22T14:11:31.238Z,31.10
2023-05-22T14:13:58.769Z,31.10
2023-05-22T14:16:26.297Z,31.10
2023-05-22T14:18:53.976Z,31.30
2023-05-22T14:21:21.591Z,31.40
2023-05-22T14:23:49.049Z,31.30
2023-05-22T14:26:16.516Z,31.20
2023-05-22T14:28:44.283Z,30.60
2023-05-22T14:31:11.817Z,30.70
2023-05-22T14:33:39.336Z,30.70
2023-05-22T14:36:07.076Z,30.60
2023-05-22T14:38:34.764Z,30.20
2023-05-22T14:41:02.826Z,30.00
2023-05-22T14:43:30.305Z,29.90
2023-05-22T14:45:59.286Z,30.10
2023-05-22T14:48:27.030Z,30.10
2023-05-22T14:50:54.577Z,29.90
2023-05-22T14:53:23.371Z,30.00
2023-05-22T14:55:51.031Z,29.40
2023-05-22T14:58:18.489Z,29.30
2023-05-22T15:00:47.379Z,29.30
2023-05-22T15:03:14.911Z,29.00
2023-05-22T15:05:42.739Z,28.60
2023-05-22T15:08:10.297Z,28.50
2023-05-22T15:10:37.828Z,28.40
2023-05-22T15:13:05.316Z,28.40
2023-05-22T15:15:33.045Z,28.30
2023-05-22T15:18:02.863Z,28.20
2023-05-22T15:20:31.262Z,28.10
2023-05-22T15:22:59.961Z,28.10
2023-05-22T15:25:27.741Z,28.10
2023-05-22T15:27:55.216Z,28.00
2023-05-22T15:30:23.747Z,27.90
2023-05-22T15:32:51.306Z,28.00
2023-05-22T15:35:18.818Z,28.00
2023-05-22T15:37:46.595Z,28.20
2023-05-22T15:40:17.420Z,28.30
2023-05-22T15:42:45.037Z,28.40
2023-05-22T15:45:12.673Z,28.30
2023-05-22T15:47:42.296Z,28.20
2023-05-22T15:50:10.327Z,28.20
2023-05-22T15:52:38.421Z,28.20
2023-05-22T15:55:06.538Z,28.10
2023-05-22T15:57:34.358Z,28.10
2023-05-22T16:00:01.837Z,28.00
2023-05-22T16:02:29.333Z,27.90
2023-05-22T16:04:56.769Z,27.80
2023-05-22T16:07:24.214Z,27.80
2023-05-22T16:09:51.683Z,27.80
2023-05-22T16:12:19.396Z,27.90
2023-05-22T16:14:46.981Z,27.90
2023-05-22T16:17:14.512Z,27.80
2023-05-22T16:19:42.133Z,27.70
2023-05-22T16:22:09.946Z,27.80
2023-05-22T16:24:37.430Z,27.70
2023-05-22T16:27:05.676Z,27.70
2023-05-22T16:29:33.266Z,27.70
2023-05-22T16:32:00.917Z,27.70
2023-05-22T16:34:29.824Z,27.70
2023-05-22T16:36:57.378Z,27.80
2023-05-22T16:39:27.291Z,27.70
2023-05-22T16:41:54.748Z,27.70
2023-05-22T16:44:22.198Z,27.70
2023-05-22T16:46:50.405Z,27.70
2023-05-22T16:49:17.873Z,27.60
2023-05-22T16:51:45.291Z,27.60
2023-05-22T16:54:12.810Z,27.50
2023-05-22T16:56:40.238Z,27.50
2023-05-22T16:59:07.691Z,27.40
2023-05-22T17:01:35.231Z,27.40
2023-05-22T17:04:02.767Z,27.40
2023-05-22T17:06:30.305Z,27.30
2023-05-22T17:08:57.933Z,27.30
2023-05-22T17:11:26.474Z,27.10
2023-05-22T17:13:53.970Z,27.10
2023-05-22T17:16:21.581Z,26.90
2023-05-22T17:18:49.205Z,27.00
2023-05-22T17:21:17.565Z,26.90
2023-05-22T17:23:45.052Z,26.70
2023-05-22T17:26:14.301Z,26.60
2023-05-22T17:28:41.788Z,26.30
2023-05-22T17:31:09.256Z,26.00
2023-05-22T17:33:36.714Z,25.50
2023-05-22T17:36:04.401Z,25.10
2023-05-22T17:38:31.837Z,25.00
2023-05-22T17:41:00.919Z,25.00
2023-05-22T17:43:28.392Z,24.90
2023-05-22T17:45:55.983Z,24.90
2023-05-22T17:48:27.178Z,24.80
2023-05-22T17:50:55.042Z,24.70
2023-05-22T17:53:22.634Z,24.60
2023-05-22T17:55:52.590Z,24.60
2023-05-22T17:58:21.068Z,24.50
2023-05-22T18:00:49.238Z,24.30
2023-05-22T18:03:21.731Z,24.20
2023-05-22T18:05:50.745Z,24.10
2023-05-22T18:08:19.198Z,23.90
2023-05-22T18:10:46.948Z,23.70
2023-05-22T18:13:14.507Z,23.70
2023-05-22T18:15:42.061Z,23.60
2023-05-22T18:18:12.100Z,23.60
2023-05-22T18:20:40.548Z,23.60
2023-05-22T18:23:08.200Z,23.60
2023-05-22T18:25:35.630Z,23.60
2023-05-22T18:28:03.080Z,23.50
2023-05-22T18:30:30.626Z,23.50
2023-05-22T18:32:58.169Z,23.50
2023-05-22T18:35:25.663Z,23.50
2023-05-22T18:37:53.169Z,23.40
2023-05-22T18:40:20.699Z,23.20
2023-05-22T18:42:48.166Z,23.20
2023-05-22T18:45:15.744Z,23.20
2023-05-22T18:47:43.323Z,23.10
2023-05-22T18:50:12.006Z,23.20
2023-05-22T18:52:40.107Z,23.10
2023-05-22T18:55:08.656Z,23.10
2023-05-22T18:57:36.350Z,23.10
2023-05-22T19:00:04.462Z,23.10
2023-05-22T19:02:32.896Z,23.00
2023-05-22T19:05:00.491Z,23.00
2023-05-22T19:07:28.385Z,22.90
2023-05-22T19:09:55.848Z,22.80
2023-05-22T19:12:24.723Z,22.70
2023-05-22T19:14:52.681Z,22.70
2023-05-22T19:17:20.159Z,22.80
2023-05-22T19:19:47.730Z,22.80
2023-05-22T19:22:17.910Z,22.80
2023-05-22T19:24:45.706Z,22.80
2023-05-22T19:27:13.131Z,22.90
2023-05-22T19:29:40.580Z,22.80
2023-05-22T19:32:08.150Z,22.70
2023-05-22T19:34:35.787Z,22.70
2023-05-22T19:37:03.350Z,22.80
2023-05-22T19:39:31.079Z,22.80
2023-05-22T19:41:58.565Z,22.90
2023-05-22T19:44:26.141Z,22.80
2023-05-22T19:46:53.709Z,22.80
2023-05-22T19:49:21.200Z,22.80
2023-05-22T19:51:48.683Z,22.80
2023-05-22T19:54:16.528Z,22.80
2023-05-22T19:56:43.987Z,22.80
2023-05-22T19:59:11.419Z,22.70
2023-05-22T20:01:38.921Z,22.60
2023-05-22T20:04:06.442Z,22.50
2023-05-22T20:06:35.152Z,22.50
2023-05-22T20:09:03.281Z,22.50
2023-05-22T20:11:30.716Z,22.30
2023-05-22T20:13:58.177Z,22.40
2023-05-22T20:16:28.554Z,22.30
2023-05-22T20:18:57.026Z,22.20
2023-05-22T20:21:24.856Z,22.30
2023-05-22T20:23:53.014Z,22.30
2023-05-22T20:26:20.633Z,22.20
2023-05-22T20:28:48.186Z,22.10
2023-05-22T20:31:15.784Z,22.00
2023-05-22T20:33:43.351Z,22.00
2023-05-22T20:36:11.004Z,21.80
2023-05-22T20:38:38.470Z,21.90
2023-05-22T20:41:09.566Z,21.80
2023-05-22T20:43:37.288Z,21.70
2023-05-22T20:46:04.883Z,21.60
2023-05-22T20:48:32.330Z,21.60
2023-05-22T20:50:59.794Z,21.60
2023-05-22T20:53:27.867Z,21.70
2023-05-22T20:55:57.494Z,21.70
2023-05-22T20:58:24.933Z,21.70
2023-05-22T21:00:52.435Z,21.70
2023-05-22T21:03:19.981Z,21.70
2023-05-22T21:05:47.492Z,21.60
2023-05-22T21:08:14.996Z,21.60
2023-05-22T21:10:42.634Z,21.60
2023-05-22T21:13:10.123Z,21.50
2023-05-22T21:15:37.714Z,21.40
2023-05-22T21:18:06.112Z,21.30
2023-05-22T21:20:33.557Z,21.30
2023-05-22T21:23:00.988Z,21.40
2023-05-22T21:25:28.498Z,21.30
2023-05-22T21:27:56.021Z,21.10
2023-05-22T21:30:23.498Z,21.20
2023-05-22T21:32:51.053Z,21.20
2023-05-22T21:35:18.497Z,21.20
2023-05-22T21:37:45.976Z,21.20
2023-05-22T21:40:13.724Z,21.20
2023-05-22T21:42:46.371Z,21.10
2023-05-22T21:45:14.459Z,21.10
2023-05-22T21:47:42.036Z,21.10
2023-05-22T21:50:10.502Z,21.10
2023-05-22T21:52:37.969Z,21.10
2023-05-22T21:55:06.499Z,21.10
2023-05-22T21:57:33.990Z,21.20
2023-05-22T22:00:01.818Z,21.20
2023-05-22T22:02:29.408Z,21.20
2023-05-22T22:04:56.872Z,21.10
2023-05-22T22:07:25.794Z,21.10
2023-05-22T22:09:53.257Z,21.00
2023-05-22T22:12:20.703Z,21.00
2023-05-22T22:14:48.197Z,20.90
2023-05-22T22:17:16.903Z,20.80
2023-05-22T22:19:45.296Z,20.70
2023-05-22T22:22:12.778Z,20.60
2023-05-22T22:24:40.276Z,20.60
2023-05-22T22:27:07.899Z,20.50
2023-05-22T22:29:35.625Z,20.30
2023-05-22T22:32:03.096Z,20.20
2023-05-22T22:34:31.151Z,20.10
2023-05-22T22:36:58.696Z,20.10
2023-05-22T22:39:26.641Z,20.00
2023-05-22T22:41:54.186Z,20.00
2023-05-22T22:44:21.655Z,19.90
2023-05-22T22:46:49.707Z,19.90
2023-05-22T22:49:17.654Z,20.00
2023-05-22T22:51:45.130Z,20.00
2023-05-22T22:54:15.258Z,19.90
2023-05-22T22:56:43.220Z,19.90
2023-05-22T22:59:10.711Z,19.90
